Time;durP1;ratioP1;P1;durP2;ratioP2;P2;SDS_P1;SDS_P2;PMS_P1;PMS_P2;Temp;Humidity;BMP_temperature;BMP_pressure;BME280_temperature;BME280_humidity;BME280_pressure;Samples;Min_cycle;Max_cycle;Signal;HPM_P1;HPM_P2
2023/10/06 00:04:53;;;;;;;;;;;;;;;-144.32;100.00;68061.97;10323180;28;19991;-80
2023/10/06 00:09:54;;;;;;;;;;;;;;;-144.32;100.00;68061.97;10320028;28;19926;-80
2023/10/06 00:14:57;;;;;;;;;;;;;;;-144.32;100.00;68061.97;10287979;28;20091;-81
2023/10/06 00:20:05;;;;;;;;;;;;;;;-144.32;100.00;68061.97;10290444;28;20013;-83
2023/10/06 00:25:11;;;;;;;;;;;;;;;-144.32;100.00;68061.97;10300595;28;19936;-80
2023/10/06 00:30:13;;;;;;;;;;;;;;;-144.32;100.00;68061.97;10293939;28;19926;-82
2023/10/06 00:35:22;;;;;;;;;;;;;;;-144.32;100.00;68061.97;10294798;28;19925;-80
2023/10/06 00:40:25;;;;;;;;;;;;;;;-144.32;100.00;68061.97;10304772;28;19926;-81
2023/10/06 00:45:30;;;;;;;;;;;;;;;-144.32;100.00;68061.97;10318106;28;19999;-79
2023/10/06 00:50:32;;;;;;;;;;;;;;;-144.32;100.00;68061.97;10317044;28;20271;-84
2023/10/06 00:55:35;;;;;;;;;;;;;;;-144.32;100.00;68061.97;10312708;28;19964;-77
2023/10/06 01:00:37;;;;;;;;;;;;;;;-144.32;100.00;68061.97;10308297;28;19957;-78
2023/10/06 01:05:38;;;;;;;;;;;;;;;-144.32;100.00;68061.97;10311811;28;19981;-77
2023/10/06 01:10:43;;;;;;;;;;;;;;;-144.32;100.00;68061.97;10293582;28;19925;-79
2023/10/06 01:15:49;;;;;;;;;;;;;;;-144.32;100.00;68061.97;10289021;28;19933;-80
2023/10/06 01:20:50;;;;;;;;;;;;;;;-144.32;100.00;68061.97;10298046;28;20064;-78
2023/10/06 01:25:54;;;;;;;;;;;;;;;-144.32;100.00;68061.97;10298687;28;20581;-79
2023/10/06 01:30:54;;;;;;;;;;;;;;;-144.32;100.00;68061.97;10311191;28;20451;-80
2023/10/06 01:35:55;;;;;;;;;;;;;;;-144.32;100.00;68061.97;10313687;28;19922;-79
2023/10/06 01:40:56;;;;;;;;;;;;;;;-144.32;100.00;68061.97;10315778;28;19977;-79
2023/10/06 01:45:59;;;;;;;;;;;;;;;-144.32;100.00;68061.97;10324840;28;20020;-77
2023/10/06 01:51:01;;;;;;;;;;;;;;;-144.32;100.00;68061.97;10337346;28;19972;-82
2023/10/06 01:56:06;;;;;;;;;;;;;;;-144.32;100.00;68061.97;10316968;28;19925;-79
2023/10/06 02:01:09;;;;;;;;;;;;;;;-144.32;100.00;68061.97;10292573;28;19926;-79
2023/10/06 02:06:15;;;;;;;;;;;;;;;-144.32;100.00;68061.97;10281369;28;20314;-79
2023/10/06 02:11:16;;;;;;;;;;;;;;;-144.32;100.00;68061.97;10302855;28;20317;-78
2023/10/06 02:16:18;;;;;;;;;;;;;;;-144.32;100.00;68061.97;10288607;28;19925;-78
2023/10/06 02:21:24;;;;;;;;;;;;;;;-144.32;100.00;68061.97;10300485;28;19929;-77
2023/10/06 02:26:24;;;;;;;;;;;;;;;-144.32;100.00;68061.97;10301725;28;20386;-77
2023/10/06 02:31:26;;;;;;;;;;;;;;;-144.32;100.00;68061.97;10309939;28;19980;-77
2023/10/06 02:36:26;;;;;;;;;;;;;;;-144.32;100.00;68061.97;10300425;28;20413;-79
2023/10/06 02:41:27;;;;;;;;;;;;;;;-144.32;100.00;68061.97;10311911;28;19937;-77
2023/10/06 02:46:27;;;;;;;;;;;;;;;-144.32;100.00;68061.97;10291023;28;20129;-79
2023/10/06 02:51:32;;;;;;;;;;;;;;;-144.32;100.00;68061.97;10292488;28;19953;-82
2023/10/06 02:56:34;;;;;;;;;;;;;;;-144.32;100.00;68061.97;10288268;28;19926;-78
2023/10/06 03:01:38;;;;;;;;;;;;;;;-144.32;100.00;68061.97;10307493;28;20312;-79
2023/10/06 03:06:39;;;;;;;;;;;;;;;-144.32;100.00;68061.97;10317309;28;19926;-79
2023/10/06 03:11:43;;;;;;;;;;;;;;;-144.32;100.00;68061.97;10301550;28;20531;-81
2023/10/06 03:16:45;;;;;;;;;;;;;;;-144.32;100.00;68061.97;10290667;28;20378;-77
2023/10/06 03:21:59;;;;;;;;;;;;;;;-144.32;100.00;68061.97;10318827;28;19936;-77
2023/10/06 03:27:04;;;;;;;;;;;;;;;-144.32;100.00;68061.97;10293961;28;20269;-80
2023/10/06 03:32:12;;;;;;;;;;;;;;;-144.32;100.00;68061.97;10313461;28;19933;-77
2023/10/06 03:37:16;;;;;;;;;;;;;;;-144.32;100.00;68061.97;10293556;28;19972;-79
2023/10/06 03:42:20;;;;;;;;;;;;;;;-144.32;100.00;68061.97;10296166;28;19984;-78
2023/10/06 03:47:20;;;;;;;;;;;;;;;-144.32;100.00;68061.97;10316870;28;19971;-78
2023/10/06 03:52:21;;;;;;;;;;;;;;;-144.32;100.00;68061.97;10308256;28;19929;-79
2023/10/06 03:57:21;;;;;;;;;;;;;;;-144.32;100.00;68061.97;10308834;28;19929;-77
2023/10/06 04:02:38;;;;;;;;;;;;;;;-144.32;100.00;68061.97;10312153;28;20342;-78
2023/10/06 04:07:40;;;;;;;;;;;;;;;-144.32;100.00;68061.97;10308952;28;19937;-75
2023/10/06 04:12:40;;;;;;;;;;;;;;;-144.32;100.00;68061.97;10329570;28;19932;-78
2023/10/06 04:17:41;;;;;;;;;;;;;;;-144.32;100.00;68061.97;10336405;28;19968;-77
2023/10/06 04:22:42;;;;;;;;;;;;;;;-144.32;100.00;68061.97;10314507;28;19926;-76
2023/10/06 04:27:46;;;;;;;;;;;;;;;-144.32;100.00;68061.97;10291743;28;19925;-80
2023/10/06 04:32:46;;;;;;;;;;;;;;;-144.32;100.00;68061.97;10313237;28;20076;-78
2023/10/06 04:37:47;;;;;;;;;;;;;;;-144.32;100.00;68061.97;10312345;28;19930;-77
2023/10/06 04:42:48;;;;;;;;;;;;;;;-144.32;100.00;68061.97;10299865;28;20000;-77
2023/10/06 04:47:48;;;;;;;;;;;;;;;-144.32;100.00;68061.97;10332549;28;19952;-76
2023/10/06 04:52:49;;;;;;;;;;;;;;;-144.32;100.00;68061.97;10320696;28;19935;-78
2023/10/06 04:57:51;;;;;;;;;;;;;;;-144.32;100.00;68061.97;10328654;28;20271;-80
2023/10/06 05:02:51;;;;;;;;;;;;;;;-144.32;100.00;68061.97;10349734;28;19996;-81
2023/10/06 05:07:53;;;;;;;;;;;;;;;-144.32;100.00;68061.97;10343101;28;20125;-79
2023/10/06 05:12:54;;;;;;;;;;;;;;;-144.32;100.00;68061.97;10311786;28;20331;-78
2023/10/06 05:17:58;;;;;;;;;;;;;;;-144.32;100.00;68061.97;10301717;28;19956;-79
2023/10/06 05:23:02;;;;;;;;;;;;;;;-144.32;100.00;68061.97;10271915;28;19926;-78
2023/10/06 05:28:03;;;;;;;;;;;;;;;-144.32;100.00;68061.97;10313838;28;19929;-80
2023/10/06 05:33:06;;;;;;;;;;;;;;;-144.32;100.00;68061.97;10306982;28;20426;-81
2023/10/06 05:38:15;;;;;;;;;;;;;;;-144.32;100.00;68061.97;10294127;28;19932;-79
2023/10/06 05:43:16;;;;;;;;;;;;;;;-144.32;100.00;68061.97;10289743;28;19921;-80
2023/10/06 05:48:18;;;;;;;;;;;;;;;-144.32;100.00;68061.97;10294701;28;20440;-77
2023/10/06 05:53:29;;;;;;;;;;;;;;;-144.32;100.00;68061.97;10311471;28;19930;-77
2023/10/06 05:58:30;;;;;;;;;;;;;;;-144.32;100.00;68061.97;10319239;28;19921;-80
2023/10/06 06:03:31;;;;;;;;;;;;;;;-144.32;100.00;68061.97;10310152;28;19930;-78
2023/10/06 06:08:31;;;;;;;;;;;;;;;-144.32;100.00;68061.97;10300832;28;19925;-78
2023/10/06 06:13:33;;;;;;;;;;;;;;;-144.32;100.00;68061.97;10312146;28;19948;-77
2023/10/06 06:18:34;;;;;;;;;;;;;;;-144.32;100.00;68061.97;10309274;28;20297;-78
2023/10/06 06:23:35;;;;;;;;;;;;;;;-144.32;100.00;68061.97;10305485;28;20453;-79
2023/10/06 06:28:36;;;;;;;;;;;;;;;-144.32;100.00;68061.97;10291590;28;19929;-80
2023/10/06 06:33:36;;;;;;;;;;;;;;;-144.32;100.00;68061.97;10304704;28;20196;-76
2023/10/06 06:38:39;;;;;;;;;;;;;;;-144.32;100.00;68061.97;10307443;28;19929;-76
2023/10/06 06:43:44;;;;;;;;;;;;;;;-144.32;100.00;68061.97;10302459;28;20406;-76
2023/10/06 06:48:46;;;;;;;;;;;;;;;-144.32;100.00;68061.97;10304248;28;19926;-77
2023/10/06 06:53:47;;;;;;;;;;;;;;;-144.32;100.00;68061.97;10296934;28;19922;-75
2023/10/06 06:58:48;;;;;;;;;;;;;;;-144.32;100.00;68061.97;10299453;28;20513;-76
2023/10/06 07:03:49;;;;;;;;;;;;;;;-144.32;100.00;68061.97;10331130;28;20358;-76
2023/10/06 07:08:50;;;;;;;;;;;;;;;-144.32;100.00;68061.97;10330220;28;19945;-77
2023/10/06 07:13:50;;;;;;;;;;;;;;;-144.32;100.00;68061.97;10308297;28;20775;-75
2023/10/06 07:18:51;;;;;;;;;;;;;;;-144.32;100.00;68061.97;10347571;28;19984;-76
2023/10/06 07:23:56;;;;;;;;;;;;;;;-144.32;100.00;68061.97;10300997;28;19928;-78
2023/10/06 07:28:59;;;;;;;;;;;;;;;-144.32;100.00;68061.97;10257501;28;20458;-78
2023/10/06 07:34:02;;;;;;;;;;;;;;;-144.32;100.00;68061.97;10258120;28;20088;-81
2023/10/06 07:39:04;;;;;;;;;;;;;;;-144.32;100.00;68061.97;10264863;28;19933;-78
2023/10/06 07:44:05;;;;;;;;;;;;;;;-144.32;100.00;68061.97;10267072;28;19925;-80
2023/10/06 07:49:05;;;;;;;;;;;;;;;-144.32;100.00;68061.97;10265349;28;20402;-79
2023/10/06 07:54:06;;;;;;;;;;;;;;;-144.32;100.00;68061.97;10267523;28;19925;-82
2023/10/06 07:59:06;;;;;;;;;;;;;;;-144.32;100.00;68061.97;10263815;28;19926;-77
2023/10/06 08:04:07;;;;;;;;;;;;;;;-144.32;100.00;68061.97;10264925;28;19933;-77
2023/10/06 08:09:10;;;;;;;;;;;;;;;-144.32;100.00;68061.97;10293744;28;19930;-79
2023/10/06 08:14:13;;;;;;;;;;;;;;;-144.32;100.00;68061.97;10319853;28;19922;-80
2023/10/06 08:19:13;;;;;;;;;;;;;;;-144.32;100.00;68061.97;10294472;28;19933;-78
2023/10/06 08:24:13;;;;;;;;;;;;;;;-144.32;100.00;68061.97;10285736;28;19932;-78
2023/10/06 08:29:14;;;;;;;;;;;;;;;-144.32;100.00;68061.97;10270816;28;20043;-77
2023/10/06 08:34:14;;;;;;;;;;;;;;;-144.32;100.00;68061.97;10272601;28;19926;-76
2023/10/06 08:39:17;;;;;;;;;;;;;;;-144.32;100.00;68061.97;10282165;28;19968;-78
2023/10/06 08:44:19;;;;;;;;;;;;;;;-144.32;100.00;68061.97;10273428;28;19929;-80
2023/10/06 08:49:19;;;;;;;;;;;;;;;-144.32;100.00;68061.97;10280249;28;19948;-79
2023/10/06 08:54:21;;;;;;;;;;;;;;;-144.32;100.00;68061.97;10276693;28;19933;-80
2023/10/06 08:59:22;;;;;;;;;;;;;;;-144.32;100.00;68061.97;10265941;28;20422;-77
2023/10/06 09:04:22;;;;;;;;;;;;;;;-144.32;100.00;68061.97;10278464;28;19932;-81
2023/10/06 09:09:26;;;;;;;;;;;;;;;-144.32;100.00;68061.97;10289548;28;19943;-80
2023/10/06 09:14:34;;;;;;;;;;;;;;;-144.32;100.00;68061.97;10306964;28;20013;-79
2023/10/06 09:19:46;;;;;;;;;;;;;;;-144.32;100.00;68061.97;10311921;28;19922;-78
2023/10/06 09:24:59;;;;;;;;;;;;;;;-144.32;100.00;68061.97;10331583;28;19906;-81
2023/10/06 09:30:12;;;;;;;;;;;;;;;-144.32;100.00;68061.97;10289795;28;19922;-84
2023/10/06 09:35:21;;;;;;;;;;;;;;;-144.32;100.00;68061.97;10281116;28;19976;-81
2023/10/06 09:40:22;;;;;;;;;;;;;;;-144.32;100.00;68061.97;10273449;28;19964;-79
2023/10/06 09:45:24;;;;;;;;;;;;;;;-144.32;100.00;68061.97;10278283;28;20420;-80
2023/10/06 09:50:28;;;;;;;;;;;;;;;-144.32;100.00;68061.97;10295955;28;19932;-79
2023/10/06 09:55:30;;;;;;;;;;;;;;;-144.32;100.00;68061.97;10289784;28;19925;-81
2023/10/06 10:00:35;;;;;;;;;;;;;;;-144.32;100.00;68061.97;10307708;28;19926;-82
2023/10/06 10:05:38;;;;;;;;;;;;;;;-144.32;100.00;68061.97;10286478;28;19932;-81
2023/10/06 10:10:40;;;;;;;;;;;;;;;-144.32;100.00;68061.97;10289764;28;19938;-80
2023/10/06 10:16:01;;;;;;;;;;;;;;;-144.32;100.00;68061.97;10309452;28;20587;-79
2023/10/06 10:21:08;;;;;;;;;;;;;;;-144.32;100.00;68061.97;10322809;28;19972;-80
2023/10/06 10:26:41;;;;;;;;;;;;;;;-144.32;100.00;68061.97;10300630;28;19926;-80
2023/10/06 10:31:46;;;;;;;;;;;;;;;-144.32;100.00;68061.97;10309854;28;19981;-80
2023/10/06 10:37:08;;;;;;;;;;;;;;;-144.32;100.00;68061.97;10311223;28;19980;-80
2023/10/06 10:42:10;;;;;;;;;;;;;;;-144.32;100.00;68061.97;10305812;28;19985;-81
2023/10/06 10:47:10;;;;;;;;;;;;;;;-144.32;100.00;68061.97;10311149;28;20013;-78
2023/10/06 10:52:12;;;;;;;;;;;;;;;-144.32;100.00;68061.97;10311052;28;20758;-80
2023/10/06 10:57:19;;;;;;;;;;;;;;;-144.32;100.00;68061.97;10326542;28;19972;-82
2023/10/06 11:02:20;;;;;;;;;;;;;;;-144.32;100.00;68061.97;10316610;28;19933;-80
2023/10/06 11:07:23;;;;;;;;;;;;;;;-144.32;100.00;68061.97;10371638;28;20660;-84
2023/10/06 11:12:24;;;;;;;;;;;;;;;-144.32;100.00;68061.97;10365045;28;19925;-82
2023/10/06 11:17:29;;;;;;;;;;;;;;;-144.32;100.00;68061.97;10346659;28;19921;-84
2023/10/06 11:22:45;;;;;;;;;;;;;;;-144.32;100.00;68061.97;10357044;28;19983;-82
2023/10/06 11:28:08;;;;;;;;;;;;;;;-144.32;100.00;68061.97;10321965;28;19931;-82
2023/10/06 11:33:11;;;;;;;;;;;;;;;-144.32;100.00;68061.97;10288182;28;19925;-78
2023/10/06 11:38:12;;;;;;;;;;;;;;;-144.32;100.00;68061.97;10322855;28;20429;-84
2023/10/06 11:43:18;;;;;;;;;;;;;;;-144.32;100.00;68061.97;10298621;28;19926;-82
2023/10/06 11:48:29;;;;;;;;;;;;;;;-144.32;100.00;68061.97;10330460;28;19926;-80
2023/10/06 11:53:58;;;;;;;;;;;;;;;-144.32;100.00;68061.97;10329460;28;20311;-80
2023/10/06 11:58:59;;;;;;;;;;;;;;;-144.32;100.00;68061.97;10325247;28;19930;-79
2023/10/06 12:03:59;;;;;;;;;;;;;;;-144.32;100.00;68061.97;10331332;28;19925;-83
2023/10/06 12:09:02;;;;;;;;;;;;;;;-144.32;100.00;68061.97;10311174;28;19929;-80
2023/10/06 12:14:03;;;;;;;;;;;;;;;-144.32;100.00;68061.97;10322932;28;19925;-81
2023/10/06 12:19:05;;;;;;;;;;;;;;;-144.32;100.00;68061.97;10315770;28;20024;-82
2023/10/06 12:24:11;;;;;;;;;;;;;;;-144.32;100.00;68061.97;10326151;28;19953;-82
2023/10/06 12:29:16;;;;;;;;;;;;;;;-144.32;100.00;68061.97;10324495;28;19925;-78
2023/10/06 12:34:19;;;;;;;;;;;;;;;-144.32;100.00;68061.97;10328823;28;20315;-81
2023/10/06 12:39:34;;;;;;;;;;;;;;;-144.32;100.00;68061.97;10318833;28;20388;-82
2023/10/06 12:44:42;;;;;;;;;;;;;;;-144.32;100.00;68061.97;10372164;28;19933;-83
2023/10/06 12:49:43;;;;;;;;;;;;;;;-144.32;100.00;68061.97;10358775;28;19921;-84
2023/10/06 12:54:46;;;;;;;;;;;;;;;-144.32;100.00;68061.97;10327760;28;19969;-80
2023/10/06 12:59:50;;;;;;;;;;;;;;;-144.32;100.00;68061.97;10320072;28;19930;-80
2023/10/06 13:04:50;;;;;;;;;;;;;;;-144.32;100.00;68061.97;10307766;28;20377;-80
2023/10/06 13:09:53;;;;;;;;;;;;;;;-144.32;100.00;68061.97;10327733;28;20016;-81
2023/10/06 13:14:54;;;;;;;;;;;;;;;-144.32;100.00;68061.97;10330072;28;19929;-81
2023/10/06 13:19:57;;;;;;;;;;;;;;;-144.32;100.00;68061.97;10322429;28;19925;-80
2023/10/06 13:24:58;;;;;;;;;;;;;;;-144.32;100.00;68061.97;10311946;28;19960;-79
2023/10/06 13:29:59;;;;;;;;;;;;;;;-144.32;100.00;68061.97;10303435;28;19933;-79
2023/10/06 13:34:59;;;;;;;;;;;;;;;-144.32;100.00;68061.97;10312367;28;19926;-84
2023/10/06 13:40:00;;;;;;;;;;;;;;;-144.32;100.00;68061.97;10313106;28;20437;-79
2023/10/06 13:45:01;;;;;;;;;;;;;;;-144.32;100.00;68061.97;10328310;28;19921;-80
2023/10/06 13:50:04;;;;;;;;;;;;;;;-144.32;100.00;68061.97;10308955;28;19937;-80
2023/10/06 13:55:07;;;;;;;;;;;;;;;-144.32;100.00;68061.97;10327727;28;20559;-81
2023/10/06 14:00:13;;;;;;;;;;;;;;;-144.32;100.00;68061.97;10304414;28;19933;-81
2023/10/06 14:05:14;;;;;;;;;;;;;;;-144.32;100.00;68061.97;10322207;28;19926;-81
2023/10/06 14:10:21;;;;;;;;;;;;;;;-144.32;100.00;68061.97;10309957;28;20363;-78
2023/10/06 14:15:30;;;;;;;;;;;;;;;-144.32;100.00;68061.97;10318193;28;19926;-82
2023/10/06 14:20:31;;;;;;;;;;;;;;;-144.32;100.00;68061.97;10323211;28;19925;-76
2023/10/06 14:25:33;;;;;;;;;;;;;;;-144.32;100.00;68061.97;10304935;28;19921;-85
2023/10/06 14:30:34;;;;;;;;;;;;;;;-144.32;100.00;68061.97;10350602;28;19953;-82
2023/10/06 14:46:15;;;;;;;;;;;;;;;-144.32;100.00;68061.97;10310794;28;19921;-78
2023/10/06 14:51:18;;;;;;;;;;;;;;;-144.32;100.00;68061.97;10292321;28;19947;-78
2023/10/06 14:56:19;;;;;;;;;;;;;;;-144.32;100.00;68061.97;10314425;28;19973;-79
2023/10/06 15:01:20;;;;;;;;;;;;;;;-144.32;100.00;68061.97;10292176;28;19925;-79
2023/10/06 15:06:20;;;;;;;;;;;;;;;-144.32;100.00;68061.97;10308657;28;19966;-80
2023/10/06 15:11:20;;;;;;;;;;;;;;;-144.32;100.00;68061.97;10314533;28;19937;-81
2023/10/06 15:16:42;;;;;;;;;;;;;;;-144.32;100.00;68061.97;10325848;28;19921;-80
2023/10/06 15:21:44;;;;;;;;;;;;;;;-144.32;100.00;68061.97;10320684;28;19934;-80
2023/10/06 15:26:45;;;;;;;;;;;;;;;-144.32;100.00;68061.97;10321266;28;19972;-80
2023/10/06 15:31:49;;;;;;;;;;;;;;;-144.32;100.00;68061.97;10322264;28;19936;-77
2023/10/06 15:36:51;;;;;;;;;;;;;;;-144.32;100.00;68061.97;10329784;28;19965;-79
2023/10/06 15:41:51;;;;;;;;;;;;;;;-144.32;100.00;68061.97;10332217;28;19929;-85
2023/10/06 15:46:54;;;;;;;;;;;;;;;-144.32;100.00;68061.97;10353982;28;19976;-80
2023/10/06 15:51:55;;;;;;;;;;;;;;;-144.32;100.00;68061.97;10335802;28;20406;-78
2023/10/06 15:57:16;;;;;;;;;;;;;;;-144.32;100.00;68061.97;10352522;28;20226;-79
2023/10/06 16:02:20;;;;;;;;;;;;;;;-144.32;100.00;68061.97;10361545;28;19925;-81
2023/10/06 16:07:22;;;;;;;;;;;;;;;-144.32;100.00;68061.97;10357490;28;20650;-80
2023/10/06 16:12:23;;;;;;;;;;;;;;;-144.32;100.00;68061.97;10318743;28;19925;-82
2023/10/06 16:17:24;;;;;;;;;;;;;;;-144.32;100.00;68061.97;10327752;28;19933;-80
2023/10/06 16:22:24;;;;;;;;;;;;;;;-144.32;100.00;68061.97;10311102;28;20056;-81
2023/10/06 16:27:24;;;;;;;;;;;;;;;-144.32;100.00;68061.97;10327292;28;19977;-80
2023/10/06 16:32:25;;;;;;;;;;;;;;;-144.32;100.00;68061.97;10334536;28;19961;-80
2023/10/06 16:37:26;;;;;;;;;;;;;;;-144.32;100.00;68061.97;10324813;28;19964;-79
2023/10/06 16:42:26;;;;;;;;;;;;;;;-144.32;100.00;68061.97;10304478;28;19929;-80
2023/10/06 16:47:28;;;;;;;;;;;;;;;-144.32;100.00;68061.97;10317386;28;19933;-81
2023/10/06 16:52:30;;;;;;;;;;;;;;;-144.32;100.00;68061.97;10324997;28;19958;-81
2023/10/06 16:57:30;;;;;;;;;;;;;;;-144.32;100.00;68061.97;10307731;28;19926;-81
2023/10/06 17:02:31;;;;;;;;;;;;;;;-144.32;100.00;68061.97;10318706;28;20071;-80
2023/10/06 17:07:32;;;;;;;;;;;;;;;-144.32;100.00;68061.97;10321633;28;19989;-80
2023/10/06 17:12:32;;;;;;;;;;;;;;;-144.32;100.00;68061.97;10317407;28;19921;-82
2023/10/06 17:17:36;;;;;;;;;;;;;;;-144.32;100.00;68061.97;10314799;28;19931;-81
2023/10/06 17:22:39;;;;;;;;;;;;;;;-144.32;100.00;68061.97;10313565;28;20004;-78
2023/10/06 17:27:40;;;;;;;;;;;;;;;-144.32;100.00;68061.97;10316307;28;20016;-77
2023/10/06 17:32:40;;;;;;;;;;;;;;;-144.32;100.00;68061.97;10327771;28;19926;-80
2023/10/06 17:37:41;;;;;;;;;;;;;;;-144.32;100.00;68061.97;10313683;28;20202;-78
2023/10/06 17:42:49;;;;;;;;;;;;;;;-144.32;100.00;68061.97;10320257;28;19929;-80
2023/10/06 17:47:51;;;;;;;;;;;;;;;-144.32;100.00;68061.97;10299495;28;19929;-80
2023/10/06 17:52:52;;;;;;;;;;;;;;;-144.32;100.00;68061.97;10312993;28;20454;-78
2023/10/06 17:57:52;;;;;;;;;;;;;;;-144.32;100.00;68061.97;10297802;28;19933;-81
2023/10/06 18:02:56;;;;;;;;;;;;;;;-144.32;100.00;68061.97;10309414;28;19926;-79
2023/10/06 18:07:56;;;;;;;;;;;;;;;-144.32;100.00;68061.97;10320595;28;19922;-79
2023/10/06 18:12:57;;;;;;;;;;;;;;;-144.32;100.00;68061.97;10316607;28;19929;-77
2023/10/06 18:17:57;;;;;;;;;;;;;;;-144.32;100.00;68061.97;10314363;28;19937;-76
2023/10/06 18:22:58;;;;;;;;;;;;;;;-144.32;100.00;68061.97;10315217;28;19926;-81
2023/10/06 18:27:58;;;;;;;;;;;;;;;-144.32;100.00;68061.97;10293428;28;19953;-80
2023/10/06 18:32:59;;;;;;;;;;;;;;;-144.32;100.00;68061.97;10319977;28;20184;-81
2023/10/06 18:38:01;;;;;;;;;;;;;;;-144.32;100.00;68061.97;10303597;28;19925;-82
2023/10/06 18:43:02;;;;;;;;;;;;;;;-144.32;100.00;68061.97;10321540;28;19929;-81
2023/10/06 18:48:04;;;;;;;;;;;;;;;-144.32;100.00;68061.97;10348043;28;19926;-83
2023/10/06 18:53:06;;;;;;;;;;;;;;;-144.32;100.00;68061.97;10355990;28;19933;-80
2023/10/06 18:58:09;;;;;;;;;;;;;;;-144.32;100.00;68061.97;10330622;28;19975;-79
2023/10/06 19:03:09;;;;;;;;;;;;;;;-144.32;100.00;68061.97;10317502;28;19930;-80
2023/10/06 19:08:12;;;;;;;;;;;;;;;-144.32;100.00;68061.97;10317817;28;19925;-82
2023/10/06 19:13:15;;;;;;;;;;;;;;;-144.32;100.00;68061.97;10317317;28;20016;-83
2023/10/06 19:18:17;;;;;;;;;;;;;;;-144.32;100.00;68061.97;10310356;28;19961;-77
2023/10/06 19:23:18;;;;;;;;;;;;;;;-144.32;100.00;68061.97;10311069;28;21262;-80
2023/10/06 19:28:18;;;;;;;;;;;;;;;-144.32;100.00;68061.97;10295320;28;19930;-80
2023/10/06 19:33:20;;;;;;;;;;;;;;;-144.32;100.00;68061.97;10288005;28;19925;-78
2023/10/06 19:38:20;;;;;;;;;;;;;;;-144.32;100.00;68061.97;10309086;28;19937;-78
2023/10/06 19:43:22;;;;;;;;;;;;;;;-144.32;100.00;68061.97;10301670;28;19957;-77
2023/10/06 19:48:25;;;;;;;;;;;;;;;-144.32;100.00;68061.97;10299947;28;19925;-80
2023/10/06 19:53:25;;;;;;;;;;;;;;;-144.32;100.00;68061.97;10264754;28;19926;-79
2023/10/06 19:58:25;;;;;;;;;;;;;;;-144.32;100.00;68061.97;10299546;28;19925;-77
2023/10/06 20:03:26;;;;;;;;;;;;;;;-144.32;100.00;68061.97;10291585;28;19938;-78
2023/10/06 20:08:27;;;;;;;;;;;;;;;-144.32;100.00;68061.97;10305956;28;19930;-77
2023/10/06 20:13:28;;;;;;;;;;;;;;;-144.32;100.00;68061.97;10292828;28;19936;-77
2023/10/06 20:18:29;;;;;;;;;;;;;;;-144.32;100.00;68061.97;10294326;28;19945;-76
2023/10/06 20:23:29;;;;;;;;;;;;;;;-144.32;100.00;68061.97;10292183;28;19953;-80
2023/10/06 20:28:29;;;;;;;;;;;;;;;-144.32;100.00;68061.97;10301542;28;20156;-79
2023/10/06 20:33:30;;;;;;;;;;;;;;;-144.32;100.00;68061.97;10323617;28;19926;-78
2023/10/06 20:38:31;;;;;;;;;;;;;;;-144.32;100.00;68061.97;10321203;28;19925;-79
2023/10/06 20:43:32;;;;;;;;;;;;;;;-144.32;100.00;68061.97;10340610;28;19925;-80
2023/10/06 20:48:33;;;;;;;;;;;;;;;-144.32;100.00;68061.97;10304811;28;20404;-75
2023/10/06 20:53:34;;;;;;;;;;;;;;;-144.32;100.00;68061.97;10289651;28;19931;-81
2023/10/06 20:58:36;;;;;;;;;;;;;;;-144.32;100.00;68061.97;10289125;28;19929;-79
2023/10/06 21:03:37;;;;;;;;;;;;;;;-144.32;100.00;68061.97;10292762;28;20023;-77
2023/10/06 21:08:40;;;;;;;;;;;;;;;-144.32;100.00;68061.97;10309897;28;19933;-78
2023/10/06 21:13:40;;;;;;;;;;;;;;;-144.32;100.00;68061.97;10304312;28;20384;-77
2023/10/06 21:18:41;;;;;;;;;;;;;;;-144.32;100.00;68061.97;10304585;28;19932;-78
2023/10/06 21:23:42;;;;;;;;;;;;;;;-144.32;100.00;68061.97;10297188;28;20007;-77
2023/10/06 21:28:43;;;;;;;;;;;;;;;-144.32;100.00;68061.97;10295332;28;20711;-77
2023/10/06 21:33:44;;;;;;;;;;;;;;;-144.32;100.00;68061.97;10313439;28;19925;-80
2023/10/06 21:38:45;;;;;;;;;;;;;;;-144.32;100.00;68061.97;10292844;28;19969;-79
2023/10/06 21:43:45;;;;;;;;;;;;;;;-144.32;100.00;68061.97;10314280;28;19933;-78
2023/10/06 21:48:46;;;;;;;;;;;;;;;-144.32;100.00;68061.97;10317896;28;19926;-77
2023/10/06 21:53:48;;;;;;;;;;;;;;;-144.32;100.00;68061.97;10314173;28;19965;-78
2023/10/06 21:58:48;;;;;;;;;;;;;;;-144.32;100.00;68061.97;10313315;28;19957;-77
2023/10/06 22:03:51;;;;;;;;;;;;;;;-144.32;100.00;68061.97;10306797;28;20371;-78
2023/10/06 22:08:52;;;;;;;;;;;;;;;-144.32;100.00;68061.97;10308454;28;19926;-78
2023/10/06 22:13:53;;;;;;;;;;;;;;;-144.32;100.00;68061.97;10307973;28;19999;-78
2023/10/06 22:18:53;;;;;;;;;;;;;;;-144.32;100.00;68061.97;10312117;28;19926;-78
2023/10/06 22:23:54;;;;;;;;;;;;;;;-144.32;100.00;68061.97;10310465;28;19925;-78
2023/10/06 22:28:54;;;;;;;;;;;;;;;-144.32;100.00;68061.97;10312449;28;20516;-76
2023/10/06 22:33:55;;;;;;;;;;;;;;;-144.32;100.00;68061.97;10309315;28;19929;-76
2023/10/06 22:38:55;;;;;;;;;;;;;;;-144.32;100.00;68061.97;10308689;28;19926;-77
2023/10/06 22:43:56;;;;;;;;;;;;;;;-144.32;100.00;68061.97;10303132;28;20327;-77
2023/10/06 22:48:57;;;;;;;;;;;;;;;-144.32;100.00;68061.97;10307707;28;20008;-77
2023/10/06 22:53:57;;;;;;;;;;;;;;;-144.32;100.00;68061.97;10297763;28;19930;-78
2023/10/06 22:58:58;;;;;;;;;;;;;;;-144.32;100.00;68061.97;10297703;28;20047;-80
2023/10/06 23:03:58;;;;;;;;;;;;;;;-144.32;100.00;68061.97;10294161;28;19926;-78
2023/10/06 23:08:58;;;;;;;;;;;;;;;-144.32;100.00;68061.97;10297418;28;19933;-81
2023/10/06 23:13:59;;;;;;;;;;;;;;;-144.32;100.00;68061.97;10301441;28;20318;-79
2023/10/06 23:18:59;;;;;;;;;;;;;;;-144.32;100.00;68061.97;10303034;28;19922;-80
2023/10/06 23:24:07;;;;;;;;;;;;;;;-144.32;100.00;68061.97;10303126;28;20391;-77
2023/10/06 23:29:08;;;;;;;;;;;;;;;-144.32;100.00;68061.97;10291361;28;19926;-77
2023/10/06 23:34:09;;;;;;;;;;;;;;;-144.32;100.00;68061.97;10313826;28;19953;-77
2023/10/06 23:39:11;;;;;;;;;;;;;;;-144.32;100.00;68061.97;10295684;28;19925;-76
2023/10/06 23:44:13;;;;;;;;;;;;;;;-144.32;100.00;68061.97;10316289;28;20252;-78
2023/10/06 23:49:14;;;;;;;;;;;;;;;-144.32;100.00;68061.97;10320427;28;19925;-78
2023/10/06 23:54:19;;;;;;;;;;;;;;;-144.32;100.00;68061.97;10348939;28;19932;-77
2023/10/06 23:59:21;;;;;;;;;;;;;;;-144.32;100.00;68061.97;10315687;28;19926;-78
